Terminal Aerodrome Forecast
Issued by NWS

Home | Current Version | Previous Version | Text Only | Print | Product List | Glossary On
Versions: 1 2 3 4 5 6 7 8 9 10 11 12 13 14 15 16
000
FTUS46 KHNX 211020 AAA
TAFMER
TAF AMD
KMER 211020Z 2110/2206 VRB03KT 2SM BR SCT002
     FM211300 VRB03KT 1/2SM FG OVC001
     FM211800 VRB03KT 4SM BR BKN100=

USA.gov is the U.S. government's official web portal to all federal, state and local government web resources and services.